createdAt,value
2019-03-30T00:01:35.500Z,9.11
2019-03-30T00:06:38.598Z,9.04
2019-03-30T00:11:41.918Z,8.94
2019-03-30T00:16:44.900Z,8.84
2019-03-30T00:21:48.692Z,8.78
2019-03-30T00:26:52.317Z,8.73
2019-03-30T00:31:56.000Z,8.70
2019-03-30T00:36:59.345Z,8.66
2019-03-30T00:42:02.709Z,8.59
2019-03-30T00:47:06.033Z,8.51
2019-03-30T00:52:09.079Z,8.44
2019-03-30T00:57:12.037Z,8.41
2019-03-30T01:02:15.058Z,8.34
2019-03-30T01:07:18.244Z,8.29
2019-03-30T01:12:22.160Z,8.24
2019-03-30T01:17:25.168Z,8.19
2019-03-30T01:22:28.148Z,8.13
2019-03-30T01:27:31.803Z,8.12
2019-03-30T01:32:35.410Z,8.07
2019-03-30T01:37:38.500Z,7.99
2019-03-30T01:42:41.525Z,7.98
2019-03-30T01:47:45.118Z,7.95
2019-03-30T01:52:48.759Z,7.93
2019-03-30T01:57:52.878Z,7.89
2019-03-30T02:02:56.162Z,7.84
2019-03-30T02:07:59.168Z,7.81
2019-03-30T02:13:02.183Z,7.79
2019-03-30T02:18:05.720Z,7.76
2019-03-30T02:23:09.236Z,7.74
2019-03-30T02:28:12.691Z,7.72
2019-03-30T02:33:15.959Z,7.70
2019-03-30T02:38:19.880Z,7.65
2019-03-30T02:43:22.863Z,7.65
2019-03-30T02:48:25.923Z,7.61
2019-03-30T02:53:28.888Z,7.52
2019-03-30T02:58:32.548Z,7.50
2019-03-30T03:03:35.554Z,7.48
2019-03-30T03:08:38.584Z,7.48
2019-03-30T03:13:42.683Z,7.48
2019-03-30T03:18:47.098Z,7.47
2019-03-30T03:23:50.079Z,7.48
2019-03-30T03:28:53.060Z,7.58
2019-03-30T03:33:56.727Z,7.65
2019-03-30T03:39:00.292Z,7.64
2019-03-30T03:44:03.397Z,7.55
2019-03-30T03:49:06.427Z,7.48
2019-03-30T03:54:10.682Z,7.45
2019-03-30T03:59:15.289Z,7.42
2019-03-30T04:04:23.278Z,7.49
2019-03-30T04:09:31.285Z,7.41
2019-03-30T04:14:37.895Z,7.36
2019-03-30T04:19:44.230Z,7.32
2019-03-30T04:24:47.625Z,7.29
2019-03-30T04:29:51.279Z,7.24
2019-03-30T04:34:54.267Z,7.16
2019-03-30T04:39:59.534Z,7.13
2019-03-30T04:45:03.152Z,7.13
2019-03-30T04:50:07.514Z,7.18
2019-03-30T04:55:11.214Z,7.21
2019-03-30T05:00:16.450Z,7.23
2019-03-30T05:05:20.082Z,7.27
2019-03-30T05:10:23.390Z,7.27
2019-03-30T05:15:26.381Z,7.29
2019-03-30T05:20:29.981Z,7.34
2019-03-30T05:25:33.609Z,7.36
2019-03-30T05:30:36.620Z,7.36
2019-03-30T05:35:40.957Z,7.35
2019-03-30T05:40:44.767Z,7.34
2019-03-30T05:45:47.820Z,7.37
2019-03-30T05:50:50.854Z,7.42
2019-03-30T05:55:54.509Z,7.48
2019-03-30T06:00:59.154Z,7.51
2019-03-30T06:06:02.132Z,7.55
2019-03-30T06:11:06.803Z,7.56
2019-03-30T06:16:09.772Z,7.63
2019-03-30T06:21:13.103Z,7.67
2019-03-30T06:26:18.040Z,7.77
2019-03-30T06:31:20.989Z,7.94
2019-03-30T06:36:24.345Z,8.78
2019-03-30T06:41:27.395Z,9.85
2019-03-30T06:46:30.966Z,10.93
2019-03-30T06:51:34.895Z,11.61
2019-03-30T06:56:38.221Z,12.27
2019-03-30T07:01:41.397Z,12.91
2019-03-30T07:06:45.535Z,13.51
2019-03-30T07:11:52.889Z,13.90
2019-03-30T07:17:01.786Z,13.72
2019-03-30T07:22:05.026Z,13.65
2019-03-30T07:27:08.133Z,14.44
2019-03-30T07:32:11.549Z,15.50
2019-03-30T07:37:14.900Z,15.84
2019-03-30T07:42:17.860Z,15.85
2019-03-30T07:47:21.078Z,15.96
2019-03-30T07:52:24.163Z,16.41
2019-03-30T07:57:28.390Z,16.18
2019-03-30T08:02:32.054Z,16.63
2019-03-30T08:07:35.673Z,17.11
2019-03-30T08:12:39.587Z,16.93
2019-03-30T08:17:42.613Z,16.48
2019-03-30T08:22:46.110Z,16.57
2019-03-30T08:27:49.481Z,16.87
2019-03-30T08:32:52.510Z,16.48
2019-03-30T08:37:56.017Z,15.94
2019-03-30T08:42:59.090Z,16.06
2019-03-30T08:48:02.048Z,16.27
2019-03-30T08:53:06.053Z,16.96
2019-03-30T08:58:11.123Z,17.02
2019-03-30T09:03:14.538Z,17.26
2019-03-30T09:08:18.063Z,16.96
2019-03-30T09:13:21.770Z,17.55
2019-03-30T09:18:25.046Z,17.82
2019-03-30T09:23:28.162Z,18.50
2019-03-30T09:28:31.466Z,18.53
2019-03-30T09:33:34.860Z,19.17
2019-03-30T09:38:37.958Z,19.32
2019-03-30T09:43:41.008Z,19.80
2019-03-30T09:48:45.096Z,20.46
2019-03-30T09:53:48.459Z,20.08
2019-03-30T09:58:52.311Z,19.37
2019-03-30T10:03:55.315Z,18.86
2019-03-30T10:08:58.659Z,18.92
2019-03-30T10:14:01.744Z,18.86
2019-03-30T10:19:04.794Z,19.34
2019-03-30T10:24:07.803Z,20.46
2019-03-30T10:29:11.085Z,21.36
2019-03-30T10:34:14.731Z,21.80
2019-03-30T10:39:18.079Z,21.25
2019-03-30T10:44:22.271Z,20.76
2019-03-30T10:49:25.992Z,20.61
2019-03-30T10:54:29.274Z,20.44
2019-03-30T10:59:33.365Z,20.78
2019-03-30T11:04:37.743Z,21.84
2019-03-30T11:09:41.250Z,21.52
2019-03-30T11:14:44.471Z,20.45
2019-03-30T11:19:47.817Z,20.81
2019-03-30T11:24:51.517Z,20.95
2019-03-30T11:29:54.655Z,21.04
2019-03-30T11:34:57.731Z,20.80
2019-03-30T11:40:01.183Z,21.44
2019-03-30T11:45:04.887Z,21.48
2019-03-30T11:50:09.151Z,22.30
2019-03-30T11:55:21.880Z,23.05
2019-03-30T12:00:18.960Z,21.98
2019-03-30T12:05:22.359Z,21.85
2019-03-30T12:10:25.922Z,21.65
2019-03-30T12:15:28.936Z,22.15
2019-03-30T12:20:33.353Z,22.58
2019-03-30T12:25:36.554Z,22.30
2019-03-30T12:30:39.900Z,22.64
2019-03-30T12:35:42.925Z,23.13
2019-03-30T12:40:46.702Z,22.95
2019-03-30T12:45:50.745Z,23.00
2019-03-30T12:50:54.543Z,22.09
2019-03-30T12:55:57.885Z,22.37
2019-03-30T13:01:01.997Z,22.42
2019-03-30T13:06:05.015Z,22.96
2019-03-30T13:11:08.023Z,23.61
2019-03-30T13:16:12.662Z,23.10
2019-03-30T13:21:15.686Z,23.55
2019-03-30T13:26:19.346Z,23.58
2019-03-30T13:31:22.349Z,23.02
2019-03-30T13:36:41.390Z,23.34
2019-03-30T13:41:44.528Z,23.35
2019-03-30T13:46:47.527Z,22.65
2019-03-30T13:51:50.518Z,21.81
2019-03-30T13:56:53.542Z,22.15
2019-03-30T14:01:57.214Z,22.72
2019-03-30T14:07:01.340Z,21.77
2019-03-30T14:12:04.416Z,21.83
2019-03-30T14:17:08.307Z,22.40
2019-03-30T14:22:12.111Z,22.71
2019-03-30T14:27:15.114Z,22.64
2019-03-30T14:32:18.248Z,22.36
2019-03-30T14:37:21.265Z,22.75
2019-03-30T14:42:24.597Z,22.98
2019-03-30T14:47:28.229Z,22.40
2019-03-30T14:52:31.907Z,22.03
2019-03-30T14:57:35.215Z,21.92
2019-03-30T15:02:39.271Z,22.30
2019-03-30T15:07:42.411Z,22.17
2019-03-30T15:12:45.731Z,22.23
2019-03-30T15:17:49.109Z,21.92
2019-03-30T15:22:52.861Z,21.27
2019-03-30T15:27:56.146Z,21.08
2019-03-30T15:32:59.283Z,20.92
2019-03-30T15:38:03.597Z,21.44
2019-03-30T15:43:07.714Z,21.65
2019-03-30T15:48:12.144Z,21.74
2019-03-30T15:53:16.232Z,21.34
2019-03-30T15:58:20.845Z,20.85
2019-03-30T16:03:24.225Z,20.62
2019-03-30T16:08:27.838Z,20.50
2019-03-30T16:13:31.184Z,20.37
2019-03-30T16:18:34.265Z,20.44
2019-03-30T16:23:37.485Z,20.44
2019-03-30T16:28:41.893Z,20.33
2019-03-30T16:33:47.046Z,20.04
2019-03-30T16:38:50.915Z,19.96
2019-03-30T16:43:54.610Z,19.73
2019-03-30T16:48:58.680Z,19.75
2019-03-30T16:54:04.220Z,19.58
2019-03-30T16:59:07.530Z,19.51
2019-03-30T17:04:10.486Z,19.50
2019-03-30T17:09:14.538Z,19.38
2019-03-30T17:14:18.130Z,19.42
2019-03-30T17:19:21.141Z,19.24
2019-03-30T17:24:24.634Z,19.14
2019-03-30T17:29:28.342Z,19.07
2019-03-30T17:34:31.430Z,19.05
2019-03-30T17:39:36.145Z,19.08
2019-03-30T17:44:39.490Z,18.85
2019-03-30T17:49:44.012Z,18.61
2019-03-30T17:54:47.277Z,18.52
2019-03-30T17:59:50.625Z,18.31
2019-03-30T18:04:57.283Z,18.19
2019-03-30T18:10:03.428Z,18.04
2019-03-30T18:15:07.556Z,17.95
2019-03-30T18:20:11.547Z,17.93
2019-03-30T18:25:15.005Z,17.99
2019-03-30T18:30:35.594Z,17.89
2019-03-30T18:35:40.625Z,17.72
2019-03-30T18:40:43.939Z,17.58
2019-03-30T18:45:47.054Z,17.43
2019-03-30T18:50:50.076Z,17.23
2019-03-30T18:55:55.282Z,17.13
2019-03-30T19:00:59.249Z,17.00
2019-03-30T19:06:03.419Z,16.83
2019-03-30T19:11:06.474Z,16.71
2019-03-30T19:16:10.489Z,16.69
2019-03-30T19:21:13.534Z,16.58
2019-03-30T19:26:16.808Z,16.50
2019-03-30T19:31:20.217Z,16.44
2019-03-30T19:36:23.826Z,16.35
2019-03-30T19:41:27.176Z,16.27
2019-03-30T19:46:30.209Z,16.17
2019-03-30T19:51:34.703Z,16.06
2019-03-30T19:56:38.116Z,15.96
2019-03-30T20:01:44.002Z,15.88
2019-03-30T20:06:46.980Z,15.81
2019-03-30T20:11:50.089Z,15.82
2019-03-30T20:16:54.113Z,15.82
2019-03-30T20:21:57.551Z,15.80
2019-03-30T20:27:02.375Z,15.81
2019-03-30T20:32:05.439Z,15.79
2019-03-30T20:37:08.711Z,15.79
2019-03-30T20:42:11.996Z,15.80
2019-03-30T20:47:15.000Z,15.85
2019-03-30T20:52:18.628Z,15.85
2019-03-30T20:57:22.251Z,15.84
2019-03-30T21:02:25.230Z,15.84
2019-03-30T21:07:28.195Z,15.75
2019-03-30T21:12:31.671Z,15.65
2019-03-30T21:17:34.992Z,15.60
2019-03-30T21:22:38.017Z,15.56
2019-03-30T21:27:41.062Z,15.58
2019-03-30T21:32:44.054Z,15.57
2019-03-30T21:37:47.020Z,15.38
2019-03-30T21:42:50.173Z,15.32
2019-03-30T21:47:53.197Z,15.35
2019-03-30T21:52:56.573Z,15.37
2019-03-30T21:58:00.023Z,15.06
2019-03-30T22:03:04.112Z,14.86
2019-03-30T22:08:08.759Z,14.73
2019-03-30T22:13:11.711Z,14.70
2019-03-30T22:18:15.259Z,14.68
2019-03-30T22:23:18.831Z,14.61
2019-03-30T22:28:21.812Z,14.65
2019-03-30T22:33:24.797Z,14.55
2019-03-30T22:38:28.415Z,14.50
2019-03-30T22:43:32.596Z,14.56
2019-03-30T22:48:36.026Z,14.58
2019-03-30T22:53:39.372Z,14.59
2019-03-30T22:58:42.984Z,14.57
2019-03-30T23:03:46.777Z,14.55
2019-03-30T23:08:49.798Z,14.43
2019-03-30T23:13:53.586Z,14.25
2019-03-30T23:18:56.883Z,14.14
2019-03-30T23:23:59.867Z,14.12
2019-03-30T23:29:03.799Z,14.11
2019-03-30T23:34:07.462Z,14.12
2019-03-30T23:39:10.833Z,14.06
2019-03-30T23:44:13.780Z,13.98
2019-03-30T23:49:16.787Z,13.91
2019-03-30T23:54:19.771Z,13.81
2019-03-30T23:59:23.481Z,13.65
